Laketon, Indiana
Current Conditions -  °F | °C
As of 7:55 AM on Saturday 20 Dec 2014 (Local Time) from KRCR Reporting Station
Haze Haze  
Wind Chill: 32°   Ceiling: 2700
Heat Index: 32°   Visibility: 5mi
Dew Point: 30°   Wind: 0mph
Humidity: 93%   Direction: NA
Pressure: 30.28"   Gusts: NA
Location:  40.97°N, 85.84°W
Report Text: KRCR 201255Z AUTO 00000KT 5SM BR OVC027 00/M01 A3028 RMK AO2
Loading
Personal Weather Stations






























Interactive Weather Map New forecast layout! Learn more

10-Day Weather Forecast

Advertisements
Track Severe Weather on mobile